Aviation Digital Data Service (ADDS)

Output produced by METARs form (1607 UTC 23 January 2019)
found at http://www.aviationweather.gov/metar/data/
 
METAR text: EETN 231550Z 22009KT 6000 OVC006 M02/M03 Q1009 R08/450195 TEMPO 3000 -SN BR
Conditions at: EETN (TALLINN , EE) observed 1550 UTC 23 January 2019
Temperature: -2.0°C (28°F)
Dewpoint: -3.0°C (27°F) [RH = 93%]
Pressure (altimeter): 29.79 inches Hg (1009.0 mb)
Winds: from the SW (220 degrees) at 10 MPH (9 knots; 4.6 m/s)
Visibility: 4 miles ( 6 km)
Ceiling: 600 feet AGL
Clouds: overcast cloud deck at 600 feet AGL
Weather: no significant weather observed at this time

METAR text: EETN 231520Z 21010KT 6000 OVC005 M02/M03 Q1009 R08/450195 TEMPO 3000 -SN BR
Conditions at: EETN (TALLINN , EE) observed 1520 UTC 23 January 2019
Temperature: -2.0°C (28°F)
Dewpoint: -3.0°C (27°F) [RH = 93%]
Pressure (altimeter): 29.79 inches Hg (1009.0 mb)
Winds: from the SSW (210 degrees) at 12 MPH (10 knots; 5.1 m/s)
Visibility: 4 miles ( 6 km)
Ceiling: 500 feet AGL
Clouds: overcast cloud deck at 500 feet AGL
Weather: no significant weather observed at this time

METAR text: EETN 231450Z 21011KT 6000 OVC006 M03/M03 Q1009 R08/450195 TEMPO 3000 BR
Conditions at: EETN (TALLINN , EE) observed 1450 UTC 23 January 2019
Temperature: -3.0°C (27°F)
Dewpoint: -3.0°C (27°F) [RH = 100%]
Pressure (altimeter): 29.79 inches Hg (1009.0 mb)
Winds: from the SSW (210 degrees) at 13 MPH (11 knots; 5.7 m/s)
Visibility: 4 miles ( 6 km)
Ceiling: 600 feet AGL
Clouds: overcast cloud deck at 600 feet AGL
Weather: no significant weather observed at this time

METAR text: EETN 231420Z 21010KT 6000 OVC006 M03/M03 Q1009 R08/450195 NOSIG
Conditions at: EETN (TALLINN , EE) observed 1420 UTC 23 January 2019
Temperature: -3.0°C (27°F)
Dewpoint: -3.0°C (27°F) [RH = 100%]
Pressure (altimeter): 29.79 inches Hg (1009.0 mb)
Winds: from the SSW (210 degrees) at 12 MPH (10 knots; 5.1 m/s)
Visibility: 4 miles ( 6 km)
Ceiling: 600 feet AGL
Clouds: overcast cloud deck at 600 feet AGL
Weather: no significant weather observed at this time

METAR text: EETN 231350Z 20010KT 7000 OVC007 M03/M03 Q1009 R08/450195 NOSIG
Conditions at: EETN (TALLINN , EE) observed 1350 UTC 23 January 2019
Temperature: -3.0°C (27°F)
Dewpoint: -3.0°C (27°F) [RH = 100%]
Pressure (altimeter): 29.79 inches Hg (1009.0 mb)
Winds: from the SSW (200 degrees) at 12 MPH (10 knots; 5.1 m/s)
Visibility: 4 miles ( 7 km)
Ceiling: 700 feet AGL
Clouds: overcast cloud deck at 700 feet AGL
Weather: no significant weather observed at this time

METAR text: EETN 231320Z 20009KT 7000 OVC007 M03/M03 Q1009 R08/450195 NOSIG
Conditions at: EETN (TALLINN , EE) observed 1320 UTC 23 January 2019
Temperature: -3.0°C (27°F)
Dewpoint: -3.0°C (27°F) [RH = 100%]
Pressure (altimeter): 29.79 inches Hg (1009.0 mb)
Winds: from the SSW (200 degrees) at 10 MPH (9 knots; 4.6 m/s)
Visibility: 4 miles ( 7 km)
Ceiling: 700 feet AGL
Clouds: overcast cloud deck at 700 feet AGL
Weather: no significant weather observed at this time

METAR text: EETN 231250Z 21009KT 6000 OVC007 M03/M03 Q1009 R08/450195 NOSIG
Conditions at: EETN (TALLINN , EE) observed 1250 UTC 23 January 2019
Temperature: -3.0°C (27°F)
Dewpoint: -3.0°C (27°F) [RH = 100%]
Pressure (altimeter): 29.79 inches Hg (1009.0 mb)
Winds: from the SSW (210 degrees) at 10 MPH (9 knots; 4.6 m/s)
Visibility: 4 miles ( 6 km)
Ceiling: 700 feet AGL
Clouds: overcast cloud deck at 700 feet AGL
Weather: no significant weather observed at this time

METAR text: EETN 231220Z 21010KT 6000 OVC008 M03/M03 Q1009 R08/850293 NOSIG
Conditions at: EETN (TALLINN , EE) observed 1220 UTC 23 January 2019
Temperature: -3.0°C (27°F)
Dewpoint: -3.0°C (27°F) [RH = 100%]
Pressure (altimeter): 29.79 inches Hg (1009.0 mb)
Winds: from the SSW (210 degrees) at 12 MPH (10 knots; 5.1 m/s)
Visibility: 4 miles ( 6 km)
Ceiling: 800 feet AGL
Clouds: overcast cloud deck at 800 feet AGL
Weather: no significant weather observed at this time

METAR text: EETN 231150Z 20010KT 6000 OVC008 M03/M03 Q1009 R08/850293 NOSIG
Conditions at: EETN (TALLINN , EE) observed 1150 UTC 23 January 2019
Temperature: -3.0°C (27°F)
Dewpoint: -3.0°C (27°F) [RH = 100%]
Pressure (altimeter): 29.79 inches Hg (1009.0 mb)
Winds: from the SSW (200 degrees) at 12 MPH (10 knots; 5.1 m/s)
Visibility: 4 miles ( 6 km)
Ceiling: 800 feet AGL
Clouds: overcast cloud deck at 800 feet AGL
Weather: no significant weather observed at this time

METAR text: EETN 231120Z 20010KT 5000 -SN BR OVC009 M03/M04 Q1009 R08/850293 NOSIG
Conditions at: EETN (TALLINN , EE) observed 1120 UTC 23 January 2019
Temperature: -3.0°C (27°F)
Dewpoint: -4.0°C (25°F) [RH = 93%]
Pressure (altimeter): 29.79 inches Hg (1009.0 mb)
Winds: from the SSW (200 degrees) at 12 MPH (10 knots; 5.1 m/s)
Visibility: 3 miles ( 5 km)
Ceiling: 900 feet AGL
Clouds: overcast cloud deck at 900 feet AGL
Weather: -SN BR  (light snow, mist)

METAR text: EETN 231050Z 20009KT 4100 -SN BR BKN009 BKN013 M04/M04 Q1009 R08/850293 NOSIG
Conditions at: EETN (TALLINN , EE) observed 1050 UTC 23 January 2019
Temperature: -4.0°C (25°F)
Dewpoint: -4.0°C (25°F) [RH = 100%]
Pressure (altimeter): 29.79 inches Hg (1009.0 mb)
Winds: from the SSW (200 degrees) at 10 MPH (9 knots; 4.6 m/s)
Visibility: 2.55 miles (4.10 km)
Ceiling: 900 feet AGL
Clouds: broken clouds at 900 feet AGL
broken clouds at 1300 feet AGL
Weather: -SN BR  (light snow, mist)

METAR text: EETN 231020Z 20009KT 4300 -SN BR BKN014 BKN030 M04/M05 Q1009 R08/850293 NOSIG
Conditions at: EETN (TALLINN , EE) observed 1020 UTC 23 January 2019
Temperature: -4.0°C (25°F)
Dewpoint: -5.0°C (23°F) [RH = 93%]
Pressure (altimeter): 29.79 inches Hg (1009.0 mb)
Winds: from the SSW (200 degrees) at 10 MPH (9 knots; 4.6 m/s)
Visibility: 2.67 miles (4.30 km)
Ceiling: 1400 feet AGL
Clouds: broken clouds at 1400 feet AGL
broken clouds at 3000 feet AGL
Weather: -SN BR  (light snow, mist)

METAR text: EETN 230950Z 20009KT 160V220 4600 -SN BR FEW007 SCT015 OVC029 M05/M05 Q1009 RESN R08/850293 NOSIG
Conditions at: EETN (TALLINN , EE) observed 0950 UTC 23 January 2019
Temperature: -5.0°C (23°F)
Dewpoint: -5.0°C (23°F) [RH = 100%]
Pressure (altimeter): 29.79 inches Hg (1009.0 mb)
Winds: from the SSW (200 degrees) at 10 MPH (9 knots; 4.6 m/s)
Visibility: 2.86 miles (4.60 km)
Ceiling: 2900 feet AGL
Clouds: few clouds at 700 feet AGL
scattered clouds at 1500 feet AGL
overcast cloud deck at 2900 feet AGL
Weather: -SN BR  (light snow, mist)

METAR text: EETN 230920Z 19009KT 4100 -SN BR FEW008 SCT016 BKN038 M05/M05 Q1009 R08/850293 NOSIG
Conditions at: EETN (TALLINN , EE) observed 0920 UTC 23 January 2019
Temperature: -5.0°C (23°F)
Dewpoint: -5.0°C (23°F) [RH = 100%]
Pressure (altimeter): 29.79 inches Hg (1009.0 mb)
Winds: from the S (190 degrees) at 10 MPH (9 knots; 4.6 m/s)
Visibility: 2.55 miles (4.10 km)
Ceiling: 3800 feet AGL
Clouds: few clouds at 800 feet AGL
scattered clouds at 1600 feet AGL
broken clouds at 3800 feet AGL
Weather: -SN BR  (light snow, mist)

METAR text: EETN 230850Z 19007KT 150V220 3100 SN SCT008 OVC015 M05/M05 Q1009 R08/590292 TEMPO 5000
Conditions at: EETN (TALLINN , EE) observed 0850 UTC 23 January 2019
Temperature: -5.0°C (23°F)
Dewpoint: -5.0°C (23°F) [RH = 100%]
Pressure (altimeter): 29.79 inches Hg (1009.0 mb)
Winds: from the S (190 degrees) at 8 MPH (7 knots; 3.6 m/s)
Visibility: 1.93 miles (3.11 km)
Ceiling: 1500 feet AGL
Clouds: scattered clouds at 800 feet AGL
overcast cloud deck at 1500 feet AGL
Weather: SN  (moderate snow)

METAR text: EETN 230820Z 19007KT 0800 R26/1200D +SN VV010 M05/M06 Q1009 R08/390195 TEMPO 1500 SN
Conditions at: EETN (TALLINN , EE) observed 0820 UTC 23 January 2019
Temperature: -5.0°C (23°F)
Dewpoint: -6.0°C (21°F) [RH = 93%]
Pressure (altimeter): 29.79 inches Hg (1009.0 mb)
Winds: from the S (190 degrees) at 8 MPH (7 knots; 3.6 m/s)
Visibility: 0.50 miles (0.80 km)
Ceiling: indefinite ceiling with vertical visibility of 1000 feet AGL
Clouds: obscured sky
Weather: +SN  (heavy snow)

METAR text: EETN 230750Z 19007KT 4600 -SN BR OVC006 M05/M06 Q1009 R08/390195 TEMPO 3000 SN
Conditions at: EETN (TALLINN , EE) observed 0750 UTC 23 January 2019
Temperature: -5.0°C (23°F)
Dewpoint: -6.0°C (21°F) [RH = 93%]
Pressure (altimeter): 29.79 inches Hg (1009.0 mb)
Winds: from the S (190 degrees) at 8 MPH (7 knots; 3.6 m/s)
Visibility: 2.86 miles (4.60 km)
Ceiling: 600 feet AGL
Clouds: overcast cloud deck at 600 feet AGL
Weather: -SN BR  (light snow, mist)

METAR text: EETN 230720Z 19006KT 6000 OVC005 M06/M06 Q1009 R08/390195 TEMPO 3000 SN BR
Conditions at: EETN (TALLINN , EE) observed 0720 UTC 23 January 2019
Temperature: -6.0°C (21°F)
Dewpoint: -6.0°C (21°F) [RH = 100%]
Pressure (altimeter): 29.79 inches Hg (1009.0 mb)
Winds: from the S (190 degrees) at 7 MPH (6 knots; 3.1 m/s)
Visibility: 4 miles ( 6 km)
Ceiling: 500 feet AGL
Clouds: overcast cloud deck at 500 feet AGL
Weather: no significant weather observed at this time

METAR text: EETN 230650Z 18005KT 150V220 6000 OVC006 M06/M06 Q1009 R08/390293 TEMPO 3000 BR OVC003
Conditions at: EETN (TALLINN , EE) observed 0650 UTC 23 January 2019
Temperature: -6.0°C (21°F)
Dewpoint: -6.0°C (21°F) [RH = 100%]
Pressure (altimeter): 29.79 inches Hg (1009.0 mb)
Winds: from the S (180 degrees) at 6 MPH (5 knots; 2.6 m/s)
Visibility: 4 miles ( 6 km)
Ceiling: 600 feet AGL
Clouds: overcast cloud deck at 600 feet AGL
Weather: no significant weather observed at this time

METAR text: EETN 230620Z 18004KT 140V210 7000 OVC007 M06/M07 Q1009 R08/810295 NOSIG
Conditions at: EETN (TALLINN , EE) observed 0620 UTC 23 January 2019
Temperature: -6.0°C (21°F)
Dewpoint: -7.0°C (19°F) [RH = 93%]
Pressure (altimeter): 29.79 inches Hg (1009.0 mb)
Winds: from the S (180 degrees) at 5 MPH (4 knots; 2.1 m/s)
Visibility: 4 miles ( 7 km)
Ceiling: 700 feet AGL
Clouds: overcast cloud deck at 700 feet AGL
Weather: no significant weather observed at this time

METAR text: EETN 230550Z 18005KT 7000 SCT006 BKN009 M06/M07 Q1009 R08/810295 NOSIG
Conditions at: EETN (TALLINN , EE) observed 0550 UTC 23 January 2019
Temperature: -6.0°C (21°F)
Dewpoint: -7.0°C (19°F) [RH = 93%]
Pressure (altimeter): 29.79 inches Hg (1009.0 mb)
Winds: from the S (180 degrees) at 6 MPH (5 knots; 2.6 m/s)
Visibility: 4 miles ( 7 km)
Ceiling: 900 feet AGL
Clouds: scattered clouds at 600 feet AGL
broken clouds at 900 feet AGL
Weather: no significant weather observed at this time

METAR text: EETN 230520Z 18005KT 7000 BKN006 M06/M07 Q1010 R08/810295 NOSIG
Conditions at: EETN (TALLINN , EE) observed 0520 UTC 23 January 2019
Temperature: -6.0°C (21°F)
Dewpoint: -7.0°C (19°F) [RH = 93%]
Pressure (altimeter): 29.82 inches Hg (1010.0 mb)
Winds: from the S (180 degrees) at 6 MPH (5 knots; 2.6 m/s)
Visibility: 4 miles ( 7 km)
Ceiling: 600 feet AGL
Clouds: broken clouds at 600 feet AGL
Weather: no significant weather observed at this time

METAR text: EETN 230450Z 19004KT 7000 OVC006 M07/M07 Q1010 R08/810295 NOSIG
Conditions at: EETN (TALLINN , EE) observed 0450 UTC 23 January 2019
Temperature: -7.0°C (19°F)
Dewpoint: -7.0°C (19°F) [RH = 100%]
Pressure (altimeter): 29.82 inches Hg (1010.0 mb)
Winds: from the S (190 degrees) at 5 MPH (4 knots; 2.1 m/s)
Visibility: 4 miles ( 7 km)
Ceiling: 600 feet AGL
Clouds: overcast cloud deck at 600 feet AGL
Weather: no significant weather observed at this time

METAR text: EETN 230420Z 19005KT 6000 OVC004 M07/M08 Q1010 R08/810295 NOSIG
Conditions at: EETN (TALLINN , EE) observed 0420 UTC 23 January 2019
Temperature: -7.0°C (19°F)
Dewpoint: -8.0°C (18°F) [RH = 93%]
Pressure (altimeter): 29.82 inches Hg (1010.0 mb)
Winds: from the S (190 degrees) at 6 MPH (5 knots; 2.6 m/s)
Visibility: 4 miles ( 6 km)
Ceiling: 400 feet AGL
Clouds: overcast cloud deck at 400 feet AGL
Weather: no significant weather observed at this time

METAR text: EETN 230350Z 18004KT 5000 BR OVC004 M08/M09 Q1010 R08/810295 NOSIG
Conditions at: EETN (TALLINN , EE) observed 0350 UTC 23 January 2019
Temperature: -8.0°C (18°F)
Dewpoint: -9.0°C (16°F) [RH = 92%]
Pressure (altimeter): 29.82 inches Hg (1010.0 mb)
Winds: from the S (180 degrees) at 5 MPH (4 knots; 2.1 m/s)
Visibility: 3 miles ( 5 km)
Ceiling: 400 feet AGL
Clouds: overcast cloud deck at 400 feet AGL
Weather: BR  (mist)

METAR text: EETN 230320Z 16004KT 5000 BR OVC003 M09/M09 Q1010 R08/810295
Conditions at: EETN (TALLINN , EE) observed 0320 UTC 23 January 2019
Temperature: -9.0°C (16°F)
Dewpoint: -9.0°C (16°F) [RH = 100%]
Pressure (altimeter): 29.82 inches Hg (1010.0 mb)
Winds: from the SSE (160 degrees) at 5 MPH (4 knots; 2.1 m/s)
Visibility: 3 miles ( 5 km)
Ceiling: 300 feet AGL
Clouds: overcast cloud deck at 300 feet AGL
Weather: BR  (mist)

METAR text: EETN 230250Z 17005KT 4500 BR OVC003 M09/M09 Q1010 R08/810295
Conditions at: EETN (TALLINN , EE) observed 0250 UTC 23 January 2019
Temperature: -9.0°C (16°F)
Dewpoint: -9.0°C (16°F) [RH = 100%]
Pressure (altimeter): 29.82 inches Hg (1010.0 mb)
Winds: from the S (170 degrees) at 6 MPH (5 knots; 2.6 m/s)
Visibility: 2.80 miles (4.51 km)
Ceiling: 300 feet AGL
Clouds: overcast cloud deck at 300 feet AGL
Weather: BR  (mist)

METAR text: EETN 230220Z 18005KT 4600 BR OVC003 M09/M10 Q1010 R08/810295
Conditions at: EETN (TALLINN , EE) observed 0220 UTC 23 January 2019
Temperature: -9.0°C (16°F)
Dewpoint: -10.0°C (14°F) [RH = 92%]
Pressure (altimeter): 29.82 inches Hg (1010.0 mb)
Winds: from the S (180 degrees) at 6 MPH (5 knots; 2.6 m/s)
Visibility: 2.86 miles (4.60 km)
Ceiling: 300 feet AGL
Clouds: overcast cloud deck at 300 feet AGL
Weather: BR  (mist)

METAR text: EETN 230150Z 16005KT 4000 BR OVC003 M09/M10 Q1011 R08/810295
Conditions at: EETN (TALLINN , EE) observed 0150 UTC 23 January 2019
Temperature: -9.0°C (16°F)
Dewpoint: -10.0°C (14°F) [RH = 92%]
Pressure (altimeter): 29.85 inches Hg (1011.0 mb)
Winds: from the SSE (160 degrees) at 6 MPH (5 knots; 2.6 m/s)
Visibility: 2.49 miles (4.01 km)
Ceiling: 300 feet AGL
Clouds: overcast cloud deck at 300 feet AGL
Weather: BR  (mist)

METAR text: EETN 230120Z 16005KT 3100 BR OVC002 M10/M10 Q1011 R08/810295
Conditions at: EETN (TALLINN , EE) observed 0120 UTC 23 January 2019
Temperature: -10.0°C (14°F)
Dewpoint: -10.0°C (14°F) [RH = 100%]
Pressure (altimeter): 29.85 inches Hg (1011.0 mb)
Winds: from the SSE (160 degrees) at 6 MPH (5 knots; 2.6 m/s)
Visibility: 1.93 miles (3.11 km)
Ceiling: 200 feet AGL
Clouds: overcast cloud deck at 200 feet AGL
Weather: BR  (mist)

METAR text: EETN 230050Z 17004KT 1600 BR OVC002 M10/M11 Q1011 R08/810295
Conditions at: EETN (TALLINN , EE) observed 0050 UTC 23 January 2019
Temperature: -10.0°C (14°F)
Dewpoint: -11.0°C (12°F) [RH = 92%]
Pressure (altimeter): 29.85 inches Hg (1011.0 mb)
Winds: from the S (170 degrees) at 5 MPH (4 knots; 2.1 m/s)
Visibility: 0.99 miles (1.59 km)
Ceiling: 200 feet AGL
Clouds: overcast cloud deck at 200 feet AGL
Weather: BR  (mist)

METAR text: EETN 230020Z 17005KT 2800 BR OVC003 M10/M11 Q1011 R08/810295
Conditions at: EETN (TALLINN , EE) observed 0020 UTC 23 January 2019
Temperature: -10.0°C (14°F)
Dewpoint: -11.0°C (12°F) [RH = 92%]
Pressure (altimeter): 29.85 inches Hg (1011.0 mb)
Winds: from the S (170 degrees) at 6 MPH (5 knots; 2.6 m/s)
Visibility: 1.74 miles (2.80 km)
Ceiling: 300 feet AGL
Clouds: overcast cloud deck at 300 feet AGL
Weather: BR  (mist)

METAR text: EETN 222350Z 18005KT 4800 BR OVC003 M10/M11 Q1012 R08/810295
Conditions at: EETN (TALLINN , EE) observed 2350 UTC 22 January 2019
Temperature: -10.0°C (14°F)
Dewpoint: -11.0°C (12°F) [RH = 92%]
Pressure (altimeter): 29.88 inches Hg (1012.0 mb)
Winds: from the S (180 degrees) at 6 MPH (5 knots; 2.6 m/s)
Visibility: 2.98 miles (4.80 km)
Ceiling: 300 feet AGL
Clouds: overcast cloud deck at 300 feet AGL
Weather: BR  (mist)

METAR text: EETN 222320Z 17005KT 4800 BR OVC003 M10/M11 Q1012 R08/810295
Conditions at: EETN (TALLINN , EE) observed 2320 UTC 22 January 2019
Temperature: -10.0°C (14°F)
Dewpoint: -11.0°C (12°F) [RH = 92%]
Pressure (altimeter): 29.88 inches Hg (1012.0 mb)
Winds: from the S (170 degrees) at 6 MPH (5 knots; 2.6 m/s)
Visibility: 2.98 miles (4.80 km)
Ceiling: 300 feet AGL
Clouds: overcast cloud deck at 300 feet AGL
Weather: BR  (mist)

METAR text: EETN 222250Z 17005KT 7000 OVC003 M11/M11 Q1012 R08/810295
Conditions at: EETN (TALLINN , EE) observed 2250 UTC 22 January 2019
Temperature: -11.0°C (12°F)
Dewpoint: -11.0°C (12°F) [RH = 100%]
Pressure (altimeter): 29.88 inches Hg (1012.0 mb)
Winds: from the S (170 degrees) at 6 MPH (5 knots; 2.6 m/s)
Visibility: 4 miles ( 7 km)
Ceiling: 300 feet AGL
Clouds: overcast cloud deck at 300 feet AGL
Weather: no significant weather observed at this time

METAR text: EETN 222220Z 17005KT 8000 OVC003 M11/M12 Q1012 R08/810295
Conditions at: EETN (TALLINN , EE) observed 2220 UTC 22 January 2019
Temperature: -11.0°C (12°F)
Dewpoint: -12.0°C (10°F) [RH = 92%]
Pressure (altimeter): 29.88 inches Hg (1012.0 mb)
Winds: from the S (170 degrees) at 6 MPH (5 knots; 2.6 m/s)
Visibility: 5 miles ( 8 km)
Ceiling: 300 feet AGL
Clouds: overcast cloud deck at 300 feet AGL
Weather: no significant weather observed at this time

METAR text: EETN 222150Z 16004KT 9999 OVC003 M11/M12 Q1013 R08/810295 NOSIG
Conditions at: EETN (TALLINN , EE) observed 2150 UTC 22 January 2019
Temperature: -11.0°C (12°F)
Dewpoint: -12.0°C (10°F) [RH = 92%]
Pressure (altimeter): 29.91 inches Hg (1013.0 mb)
Winds: from the SSE (160 degrees) at 5 MPH (4 knots; 2.1 m/s)
Visibility: 6 or more miles (10+ km)
Ceiling: 300 feet AGL
Clouds: overcast cloud deck at 300 feet AGL
Weather: no significant weather observed at this time

METAR text: EETN 222120Z 16004KT 9999 OVC004 M11/M12 Q1013 R08/810295 NOSIG
Conditions at: EETN (TALLINN , EE) observed 2120 UTC 22 January 2019
Temperature: -11.0°C (12°F)
Dewpoint: -12.0°C (10°F) [RH = 92%]
Pressure (altimeter): 29.91 inches Hg (1013.0 mb)
Winds: from the SSE (160 degrees) at 5 MPH (4 knots; 2.1 m/s)
Visibility: 6 or more miles (10+ km)
Ceiling: 400 feet AGL
Clouds: overcast cloud deck at 400 feet AGL
Weather: no significant weather observed at this time

METAR text: EETN 222050Z VRB02KT 9999 BKN003 OVC007 M12/M13 Q1013 R08/810295 NOSIG
Conditions at: EETN (TALLINN , EE) observed 2050 UTC 22 January 2019
Temperature: -12.0°C (10°F)
Dewpoint: -13.0°C ( 9°F) [RH = 92%]
Pressure (altimeter): 29.91 inches Hg (1013.0 mb)
Winds: variable direction winds at 2 MPH (2 knots; 1.0 m/s)
Visibility: 6 or more miles (10+ km)
Ceiling: 300 feet AGL
Clouds: broken clouds at 300 feet AGL
overcast cloud deck at 700 feet AGL
Weather: no significant weather observed at this time

METAR text: EETN 222020Z 16003KT 9999 BKN007 M13/M14 Q1013 R08/810295 TEMPO BKN003
Conditions at: EETN (TALLINN , EE) observed 2020 UTC 22 January 2019
Temperature: -13.0°C ( 9°F)
Dewpoint: -14.0°C ( 7°F) [RH = 92%]
Pressure (altimeter): 29.91 inches Hg (1013.0 mb)
Winds: from the SSE (160 degrees) at 3 MPH (3 knots; 1.5 m/s)
Visibility: 6 or more miles (10+ km)
Ceiling: 700 feet AGL
Clouds: broken clouds at 700 feet AGL
Weather: no significant weather observed at this time

METAR text: EETN 221950Z 16003KT 9999 BKN011 M14/M15 Q1013 R08/810295 TEMPO BKN003
Conditions at: EETN (TALLINN , EE) observed 1950 UTC 22 January 2019
Temperature: -14.0°C ( 7°F)
Dewpoint: -15.0°C ( 5°F) [RH = 92%]
Pressure (altimeter): 29.91 inches Hg (1013.0 mb)
Winds: from the SSE (160 degrees) at 3 MPH (3 knots; 1.5 m/s)
Visibility: 6 or more miles (10+ km)
Ceiling: 1100 feet AGL
Clouds: broken clouds at 1100 feet AGL
Weather: no significant weather observed at this time

METAR text: EETN 221920Z 16003KT 9999 FEW002 M15/M17 Q1013 R08/810295 TEMPO BKN002 BKN010
Conditions at: EETN (TALLINN , EE) observed 1920 UTC 22 January 2019
Temperature: -15.0°C ( 5°F)
Dewpoint: -17.0°C ( 1°F) [RH = 85%]
Pressure (altimeter): 29.91 inches Hg (1013.0 mb)
Winds: from the SSE (160 degrees) at 3 MPH (3 knots; 1.5 m/s)
Visibility: 6 or more miles (10+ km)
Ceiling: at least 12,000 feet AGL
Clouds: few clouds at 200 feet AGL
Weather: no significant weather observed at this time

METAR text: EETN 221850Z VRB02KT 9999 FEW002 M15/M17 Q1013 R08/810295 NOSIG
Conditions at: EETN (TALLINN , EE) observed 1850 UTC 22 January 2019
Temperature: -15.0°C ( 5°F)
Dewpoint: -17.0°C ( 1°F) [RH = 85%]
Pressure (altimeter): 29.91 inches Hg (1013.0 mb)
Winds: variable direction winds at 2 MPH (2 knots; 1.0 m/s)
Visibility: 6 or more miles (10+ km)
Ceiling: at least 12,000 feet AGL
Clouds: few clouds at 200 feet AGL
Weather: no significant weather observed at this time

METAR text: EETN 221820Z 16004KT 9999 SCT002 M14/M16 Q1013 R08/810295 NOSIG
Conditions at: EETN (TALLINN , EE) observed 1820 UTC 22 January 2019
Temperature: -14.0°C ( 7°F)
Dewpoint: -16.0°C ( 3°F) [RH = 85%]
Pressure (altimeter): 29.91 inches Hg (1013.0 mb)
Winds: from the SSE (160 degrees) at 5 MPH (4 knots; 2.1 m/s)
Visibility: 6 or more miles (10+ km)
Ceiling: at least 12,000 feet AGL
Clouds: scattered clouds at 200 feet AGL
Weather: no significant weather observed at this time

METAR text: EETN 221750Z 13002KT 9000 SCT002 M17/M18 Q1014 R08/810295 NOSIG
Conditions at: EETN (TALLINN , EE) observed 1750 UTC 22 January 2019
Temperature: -17.0°C ( 1°F)
Dewpoint: -18.0°C (-0°F) [RH = 92%]
Pressure (altimeter): 29.94 inches Hg (1014.0 mb)
Winds: from the SE (130 degrees) at 2 MPH (2 knots; 1.0 m/s)
Visibility: 6 miles ( 9 km)
Ceiling: at least 12,000 feet AGL
Clouds: scattered clouds at 200 feet AGL
Weather: no significant weather observed at this time

METAR text: EETN 221720Z VRB02KT 9000 BKN002 M17/M18 Q1014 R08/810295 NOSIG
Conditions at: EETN (TALLINN , EE) observed 1720 UTC 22 January 2019
Temperature: -17.0°C ( 1°F)
Dewpoint: -18.0°C (-0°F) [RH = 92%]
Pressure (altimeter): 29.94 inches Hg (1014.0 mb)
Winds: variable direction winds at 2 MPH (2 knots; 1.0 m/s)
Visibility: 6 miles ( 9 km)
Ceiling: 200 feet AGL
Clouds: broken clouds at 200 feet AGL
Weather: no significant weather observed at this time

METAR text: EETN 221650Z 15003KT 9999 SCT002 M16/M18 Q1014 R08/810295 NOSIG
Conditions at: EETN (TALLINN , EE) observed 1650 UTC 22 January 2019
Temperature: -16.0°C ( 3°F)
Dewpoint: -18.0°C (-0°F) [RH = 85%]
Pressure (altimeter): 29.94 inches Hg (1014.0 mb)
Winds: from the SSE (150 degrees) at 3 MPH (3 knots; 1.5 m/s)
Visibility: 6 or more miles (10+ km)
Ceiling: at least 12,000 feet AGL
Clouds: scattered clouds at 200 feet AGL
Weather: no significant weather observed at this time

METAR text: EETN 221620Z VRB02KT 6000 BKN002 M16/M17 Q1015 R08/810295 NOSIG
Conditions at: EETN (TALLINN , EE) observed 1620 UTC 22 January 2019
Temperature: -16.0°C ( 3°F)
Dewpoint: -17.0°C ( 1°F) [RH = 92%]
Pressure (altimeter): 29.97 inches Hg (1015.0 mb)
Winds: variable direction winds at 2 MPH (2 knots; 1.0 m/s)
Visibility: 4 miles ( 6 km)
Ceiling: 200 feet AGL
Clouds: broken clouds at 200 feet AGL
Weather: no significant weather observed at this time

METAR text: EETN 221550Z 18004KT 4600 BR BKN002 M16/M17 Q1015 R08/810295 NOSIG
Conditions at: EETN (TALLINN , EE) observed 1550 UTC 22 January 2019
Temperature: -16.0°C ( 3°F)
Dewpoint: -17.0°C ( 1°F) [RH = 92%]
Pressure (altimeter): 29.97 inches Hg (1015.0 mb)
Winds: from the S (180 degrees) at 5 MPH (4 knots; 2.1 m/s)
Visibility: 2.86 miles (4.60 km)
Ceiling: 200 feet AGL
Clouds: broken clouds at 200 feet AGL
Weather: BR  (mist)

METAR text: EETN 221520Z 18003KT 6000 BKN003 M16/M17 Q1015 R08/810295 TEMPO 3000 BR
Conditions at: EETN (TALLINN , EE) observed 1520 UTC 22 January 2019
Temperature: -16.0°C ( 3°F)
Dewpoint: -17.0°C ( 1°F) [RH = 92%]
Pressure (altimeter): 29.97 inches Hg (1015.0 mb)
Winds: from the S (180 degrees) at 3 MPH (3 knots; 1.5 m/s)
Visibility: 4 miles ( 6 km)
Ceiling: 300 feet AGL
Clouds: broken clouds at 300 feet AGL
Weather: no significant weather observed at this time

METAR text: EETN 221450Z VRB02KT 9999 FEW002 M16/M18 Q1015 R08/810295 NOSIG
Conditions at: EETN (TALLINN , EE) observed 1450 UTC 22 January 2019
Temperature: -16.0°C ( 3°F)
Dewpoint: -18.0°C (-0°F) [RH = 85%]
Pressure (altimeter): 29.97 inches Hg (1015.0 mb)
Winds: variable direction winds at 2 MPH (2 knots; 1.0 m/s)
Visibility: 6 or more miles (10+ km)
Ceiling: at least 12,000 feet AGL
Clouds: few clouds at 200 feet AGL
Weather: no significant weather observed at this time

METAR text: EETN 221420Z VRB02KT CAVOK M16/M17 Q1015 R08/810295 NOSIG
Conditions at: EETN (TALLINN , EE) observed 1420 UTC 22 January 2019
Temperature: -16.0°C ( 3°F)
Dewpoint: -17.0°C ( 1°F) [RH = 92%]
Pressure (altimeter): 29.97 inches Hg (1015.0 mb)
Winds: variable direction winds at 2 MPH (2 knots; 1.0 m/s)
Visibility: 6 or more miles (10+ km)
Ceiling: ceiling and visibility are OK
Clouds: unknown
Weather: no significant weather observed at this time

METAR text: EETN 221350Z 17004KT CAVOK M16/M17 Q1015 R08/810295 NOSIG
Conditions at: EETN (TALLINN , EE) observed 1350 UTC 22 January 2019
Temperature: -16.0°C ( 3°F)
Dewpoint: -17.0°C ( 1°F) [RH = 92%]
Pressure (altimeter): 29.97 inches Hg (1015.0 mb)
Winds: from the S (170 degrees) at 5 MPH (4 knots; 2.1 m/s)
Visibility: 6 or more miles (10+ km)
Ceiling: ceiling and visibility are OK
Clouds: unknown
Weather: no significant weather observed at this time

METAR text: EETN 221320Z 17003KT CAVOK M15/M16 Q1015 R08/450295 NOSIG
Conditions at: EETN (TALLINN , EE) observed 1320 UTC 22 January 2019
Temperature: -15.0°C ( 5°F)
Dewpoint: -16.0°C ( 3°F) [RH = 92%]
Pressure (altimeter): 29.97 inches Hg (1015.0 mb)
Winds: from the S (170 degrees) at 3 MPH (3 knots; 1.5 m/s)
Visibility: 6 or more miles (10+ km)
Ceiling: ceiling and visibility are OK
Clouds: unknown
Weather: no significant weather observed at this time

METAR text: EETN 221250Z VRB02KT CAVOK M15/M16 Q1015 R08/450295 NOSIG
Conditions at: EETN (TALLINN , EE) observed 1250 UTC 22 January 2019
Temperature: -15.0°C ( 5°F)
Dewpoint: -16.0°C ( 3°F) [RH = 92%]
Pressure (altimeter): 29.97 inches Hg (1015.0 mb)
Winds: variable direction winds at 2 MPH (2 knots; 1.0 m/s)
Visibility: 6 or more miles (10+ km)
Ceiling: ceiling and visibility are OK
Clouds: unknown
Weather: no significant weather observed at this time

METAR text: EETN 221220Z 19003KT CAVOK M14/M15 Q1015 R08/450295 NOSIG
Conditions at: EETN (TALLINN , EE) observed 1220 UTC 22 January 2019
Temperature: -14.0°C ( 7°F)
Dewpoint: -15.0°C ( 5°F) [RH = 92%]
Pressure (altimeter): 29.97 inches Hg (1015.0 mb)
Winds: from the S (190 degrees) at 3 MPH (3 knots; 1.5 m/s)
Visibility: 6 or more miles (10+ km)
Ceiling: ceiling and visibility are OK
Clouds: unknown
Weather: no significant weather observed at this time

METAR text: EETN 221150Z 18003KT 150V210 CAVOK M14/M15 Q1016 R08/450295 NOSIG
Conditions at: EETN (TALLINN , EE) observed 1150 UTC 22 January 2019
Temperature: -14.0°C ( 7°F)
Dewpoint: -15.0°C ( 5°F) [RH = 92%]
Pressure (altimeter): 30.00 inches Hg (1016.0 mb)
Winds: from the S (180 degrees) at 3 MPH (3 knots; 1.5 m/s)
Visibility: 6 or more miles (10+ km)
Ceiling: ceiling and visibility are OK
Clouds: unknown
Weather: no significant weather observed at this time

METAR text: EETN 221120Z 00000KT CAVOK M15/M17 Q1016 R08/450295 NOSIG
Conditions at: EETN (TALLINN , EE) observed 1120 UTC 22 January 2019
Temperature: -15.0°C ( 5°F)
Dewpoint: -17.0°C ( 1°F) [RH = 85%]
Pressure (altimeter): 30.00 inches Hg (1016.0 mb)
Winds: calm
Visibility: 6 or more miles (10+ km)
Ceiling: ceiling and visibility are OK
Clouds: unknown
Weather: no significant weather observed at this time

METAR text: EETN 221050Z 16002KT CAVOK M15/M17 Q1016 R08/450295 NOSIG
Conditions at: EETN (TALLINN , EE) observed 1050 UTC 22 January 2019
Temperature: -15.0°C ( 5°F)
Dewpoint: -17.0°C ( 1°F) [RH = 85%]
Pressure (altimeter): 30.00 inches Hg (1016.0 mb)
Winds: from the SSE (160 degrees) at 2 MPH (2 knots; 1.0 m/s)
Visibility: 6 or more miles (10+ km)
Ceiling: ceiling and visibility are OK
Clouds: unknown
Weather: no significant weather observed at this time

METAR text: EETN 221020Z VRB02KT CAVOK M17/M18 Q1016 R08/450295 NOSIG
Conditions at: EETN (TALLINN , EE) observed 1020 UTC 22 January 2019
Temperature: -17.0°C ( 1°F)
Dewpoint: -18.0°C (-0°F) [RH = 92%]
Pressure (altimeter): 30.00 inches Hg (1016.0 mb)
Winds: variable direction winds at 2 MPH (2 knots; 1.0 m/s)
Visibility: 6 or more miles (10+ km)
Ceiling: ceiling and visibility are OK
Clouds: unknown
Weather: no significant weather observed at this time

METAR text: EETN 220950Z VRB02KT CAVOK M17/M19 Q1016 R08/450295 NOSIG
Conditions at: EETN (TALLINN , EE) observed 0950 UTC 22 January 2019
Temperature: -17.0°C ( 1°F)
Dewpoint: -19.0°C (-2°F) [RH = 84%]
Pressure (altimeter): 30.00 inches Hg (1016.0 mb)
Winds: variable direction winds at 2 MPH (2 knots; 1.0 m/s)
Visibility: 6 or more miles (10+ km)
Ceiling: ceiling and visibility are OK
Clouds: unknown
Weather: no significant weather observed at this time

METAR text: EETN 220920Z VRB02KT 9999 FEW002 M17/M19 Q1016 R08/450295 NOSIG
Conditions at: EETN (TALLINN , EE) observed 0920 UTC 22 January 2019
Temperature: -17.0°C ( 1°F)
Dewpoint: -19.0°C (-2°F) [RH = 84%]
Pressure (altimeter): 30.00 inches Hg (1016.0 mb)
Winds: variable direction winds at 2 MPH (2 knots; 1.0 m/s)
Visibility: 6 or more miles (10+ km)
Ceiling: at least 12,000 feet AGL
Clouds: few clouds at 200 feet AGL
Weather: no significant weather observed at this time

METAR text: EETN 220850Z VRB02KT 8000 FEW002 M18/M20 Q1016 R08/450295 NOSIG
Conditions at: EETN (TALLINN , EE) observed 0850 UTC 22 January 2019
Temperature: -18.0°C (-0°F)
Dewpoint: -20.0°C (-4°F) [RH = 84%]
Pressure (altimeter): 30.00 inches Hg (1016.0 mb)
Winds: variable direction winds at 2 MPH (2 knots; 1.0 m/s)
Visibility: 5 miles ( 8 km)
Ceiling: at least 12,000 feet AGL
Clouds: few clouds at 200 feet AGL
Weather: no significant weather observed at this time

METAR text: EETN 220820Z 18003KT 9999 FEW002 M19/M21 Q1017 R08/450295 NOSIG
Conditions at: EETN (TALLINN , EE) observed 0820 UTC 22 January 2019
Temperature: -19.0°C (-2°F)
Dewpoint: -21.0°C (-6°F) [RH = 84%]
Pressure (altimeter): 30.03 inches Hg (1017.0 mb)
Winds: from the S (180 degrees) at 3 MPH (3 knots; 1.5 m/s)
Visibility: 6 or more miles (10+ km)
Ceiling: at least 12,000 feet AGL
Clouds: few clouds at 200 feet AGL
Weather: no significant weather observed at this time

METAR text: EETN 220750Z VRB02KT 8000 SCT002 M20/M21 Q1017 R08/450295 NOSIG
Conditions at: EETN (TALLINN , EE) observed 0750 UTC 22 January 2019
Temperature: -20.0°C (-4°F)
Dewpoint: -21.0°C (-6°F) [RH = 92%]
Pressure (altimeter): 30.03 inches Hg (1017.0 mb)
Winds: variable direction winds at 2 MPH (2 knots; 1.0 m/s)
Visibility: 5 miles ( 8 km)
Ceiling: at least 12,000 feet AGL
Clouds: scattered clouds at 200 feet AGL
Weather: no significant weather observed at this time

METAR text: EETN 220720Z VRB02KT 9000 SCT002 M20/M22 Q1016 R08/450295 NOSIG
Conditions at: EETN (TALLINN , EE) observed 0720 UTC 22 January 2019
Temperature: -20.0°C (-4°F)
Dewpoint: -22.0°C (-8°F) [RH = 84%]
Pressure (altimeter): 30.00 inches Hg (1016.0 mb)
Winds: variable direction winds at 2 MPH (2 knots; 1.0 m/s)
Visibility: 6 miles ( 9 km)
Ceiling: at least 12,000 feet AGL
Clouds: scattered clouds at 200 feet AGL
Weather: no significant weather observed at this time

METAR text: EETN 220650Z VRB02KT 9000 SCT001 M20/M22 Q1017 R08/450295 NOSIG
Conditions at: EETN (TALLINN , EE) observed 0650 UTC 22 January 2019
Temperature: -20.0°C (-4°F)
Dewpoint: -22.0°C (-8°F) [RH = 84%]
Pressure (altimeter): 30.03 inches Hg (1017.0 mb)
Winds: variable direction winds at 2 MPH (2 knots; 1.0 m/s)
Visibility: 6 miles ( 9 km)
Ceiling: at least 12,000 feet AGL
Clouds: scattered clouds at 100 feet AGL
Weather: no significant weather observed at this time

METAR text: EETN 220620Z VRB01KT 9000 SCT002 M20/M22 Q1017 R08/450295 NOSIG
Conditions at: EETN (TALLINN , EE) observed 0620 UTC 22 January 2019
Temperature: -20.0°C (-4°F)
Dewpoint: -22.0°C (-8°F) [RH = 84%]
Pressure (altimeter): 30.03 inches Hg (1017.0 mb)
Winds: variable direction winds at 1 MPH (1 knots; 0.5 m/s)
Visibility: 6 miles ( 9 km)
Ceiling: at least 12,000 feet AGL
Clouds: scattered clouds at 200 feet AGL
Weather: no significant weather observed at this time

METAR text: EETN 220550Z VRB02KT 9000 SCT001 M20/M22 Q1017 R08/450295 NOSIG
Conditions at: EETN (TALLINN , EE) observed 0550 UTC 22 January 2019
Temperature: -20.0°C (-4°F)
Dewpoint: -22.0°C (-8°F) [RH = 84%]
Pressure (altimeter): 30.03 inches Hg (1017.0 mb)
Winds: variable direction winds at 2 MPH (2 knots; 1.0 m/s)
Visibility: 6 miles ( 9 km)
Ceiling: at least 12,000 feet AGL
Clouds: scattered clouds at 100 feet AGL
Weather: no significant weather observed at this time

METAR text: EETN 220520Z VRB02KT 9999 0400E R08/P2000 BCFG BKN002 M20/M22 Q1017 R08/450295 NOSIG
Conditions at: EETN (TALLINN , EE) observed 0520 UTC 22 January 2019
Temperature: -20.0°C (-4°F)
Dewpoint: -22.0°C (-8°F) [RH = 84%]
Pressure (altimeter): 30.03 inches Hg (1017.0 mb)
Winds: variable direction winds at 2 MPH (2 knots; 1.0 m/s)
Visibility: 6 or more miles (10+ km)
Ceiling: 200 feet AGL
Clouds: broken clouds at 200 feet AGL
Weather: BCFG  (patches of fog)

METAR text: EETN 220450Z VRB01KT 9999 SCT001 M20/M22 Q1017 R08/450295 NOSIG
Conditions at: EETN (TALLINN , EE) observed 0450 UTC 22 January 2019
Temperature: -20.0°C (-4°F)
Dewpoint: -22.0°C (-8°F) [RH = 84%]
Pressure (altimeter): 30.03 inches Hg (1017.0 mb)
Winds: variable direction winds at 1 MPH (1 knots; 0.5 m/s)
Visibility: 6 or more miles (10+ km)
Ceiling: at least 12,000 feet AGL
Clouds: scattered clouds at 100 feet AGL
Weather: no significant weather observed at this time

METAR text: EETN 220420Z VRB01KT 9999 0600E R08/P2000 BCFG FEW002 M21/M23 Q1017 R08/450295 NOSIG
Conditions at: EETN (TALLINN , EE) observed 0420 UTC 22 January 2019
Temperature: -21.0°C (-6°F)
Dewpoint: -23.0°C (-9°F) [RH = 84%]
Pressure (altimeter): 30.03 inches Hg (1017.0 mb)
Winds: variable direction winds at 1 MPH (1 knots; 0.5 m/s)
Visibility: 6 or more miles (10+ km)
Ceiling: at least 12,000 feet AGL
Clouds: few clouds at 200 feet AGL
Weather: BCFG  (patches of fog)

Forecast for: EETN (TALLINN , EE)
Text: TAF EETN 231130Z 2312/2412 21012KT 5000 BKN008 OVC015
Forecast period: 1200 to 2200 UTC 23 January 2019
Forecast type: FROM: standard forecast or significant change
Winds: from the SSW (210 degrees) at 14 MPH (12 knots; 6.2 m/s)
Visibility: 3 miles (5 km)
Ceiling: 800 feet AGL
Clouds: broken clouds at 800 feet AGL
overcast cloud deck at 1500 feet AGL
Weather: no significant weather forecast for this period
Text: TEMPO 2314/2320 2000 SHSN BR BKN004 BKN013 SCT015CB
Forecast period: 1400 to 2000 UTC 23 January 2019
Forecast type: TEMPORARY: The following changes expected for less than half the time period
Visibility: 1.24 miles (2.00 km)
Ceiling: 400 feet AGL
Clouds: broken clouds at 400 feet AGL
broken clouds at 1300 feet AGL
scattered clouds at 1500 feet AGL
Weather: SHSN BR  (snow showers, mist)
Text: BECMG 2322/2324 VRB02KT
Forecast period: 2200 UTC 23 January 2019 to 1000 UTC 24 January 2019
Forecast type: BECOMING: Conditions expected to become as follows by 0000 UTC 24 January 2019
Winds: variable direction winds at 2 MPH (2 knots; 1.0 m/s)
Visibility: 3 miles (5 km)
Ceiling: 800 feet AGL
Clouds: broken clouds at 800 feet AGL
overcast cloud deck at 1500 feet AGL
Weather: no significant weather forecast for this period
Text: TEMPO 2320/2406 1500 SHSN BR BKN003 SCT013CB
Forecast period: 2000 UTC 23 January 2019 to 0600 UTC 24 January 2019
Forecast type: TEMPORARY: The following changes expected for less than half the time period
Visibility: 0.93 miles (1.50 km)
Ceiling: 300 feet AGL
Clouds: broken clouds at 300 feet AGL
scattered clouds at 1300 feet AGL
Weather: SHSN BR  (snow showers, mist)
Text: PROB30
Forecast period: 2100 UTC 23 January 2019 to 0300 UTC 24 January 2019
Forecast type: TEMPORARY: The following changes expected for less than half the time period
Visibility: missing
Ceiling: unknown
Clouds: missing
Weather: -FZDZ  (light freezing drizzle)
Text: TEMPO 2321/2403 -FZDZ
Forecast period: 1000 to 1200 UTC 24 January 2019
Forecast type: BECOMING: Conditions expected to become as follows by 1200 UTC 24 January 2019
Winds: from the SE (140 degrees) at 8 MPH (7 knots; 3.6 m/s)
Visibility: 5 miles (8 km)
Ceiling: 1000 feet AGL
Clouds: broken clouds at 1000 feet AGL
Weather: NSW  (no significant weather)